createdAt,value
2023-04-08T00:01:04.483Z,45.79
2023-04-08T00:03:31.495Z,45.69
2023-04-08T00:06:00.235Z,45.70
2023-04-08T00:08:26.956Z,45.48
2023-04-08T00:10:54.056Z,45.34
2023-04-08T00:13:20.836Z,45.31
2023-04-08T00:15:47.991Z,45.58
2023-04-08T00:18:15.889Z,45.18
2023-04-08T00:20:43.447Z,45.36
2023-04-08T00:23:10.426Z,45.65
2023-04-08T00:25:37.563Z,45.64
2023-04-08T00:28:04.564Z,45.54
2023-04-08T00:30:31.765Z,45.54
2023-04-08T00:32:58.589Z,45.68
2023-04-08T00:35:25.913Z,45.63
2023-04-08T00:37:52.722Z,45.98
2023-04-08T00:40:19.794Z,46.09
2023-04-08T00:42:46.641Z,46.19
2023-04-08T00:45:13.772Z,46.24
2023-04-08T00:47:40.629Z,46.29
2023-04-08T00:50:09.244Z,46.40
2023-04-08T00:52:36.206Z,46.50
2023-04-08T00:55:03.454Z,46.28
2023-04-08T00:57:30.225Z,46.26
2023-04-08T00:59:57.241Z,46.36
2023-04-08T01:02:34.195Z,46.06
2023-04-08T01:05:07.047Z,46.10
2023-04-08T01:07:35.704Z,46.24
2023-04-08T01:10:08.099Z,46.58
2023-04-08T01:12:42.222Z,46.82
2023-04-08T01:15:11.033Z,47.05
2023-04-08T01:17:37.862Z,47.31
2023-04-08T01:20:06.074Z,46.84
2023-04-08T01:26:44.724Z,47.12
2023-04-08T01:29:11.481Z,46.71
2023-04-08T01:31:38.632Z,46.84
2023-04-08T01:34:06.515Z,46.37
2023-04-08T01:36:33.773Z,46.97
2023-04-08T01:39:01.000Z,46.71
2023-04-08T01:41:28.091Z,46.93
2023-04-08T01:43:54.900Z,46.76
2023-04-08T01:46:22.062Z,46.97
2023-04-08T01:48:49.182Z,46.90
2023-04-08T01:51:16.395Z,46.81
2023-04-08T01:53:44.291Z,46.73
2023-04-08T01:56:12.969Z,46.80
2023-04-08T01:58:51.278Z,46.64
2023-04-08T02:01:20.268Z,46.68
2023-04-08T02:03:47.605Z,47.03
2023-04-08T02:06:14.777Z,47.21
2023-04-08T02:08:41.626Z,46.91
2023-04-08T02:11:08.689Z,47.28
2023-04-08T02:13:35.427Z,47.33
2023-04-08T02:16:13.187Z,47.27
2023-04-08T02:18:39.911Z,47.56
2023-04-08T02:21:10.429Z,46.97
2023-04-08T02:23:38.689Z,47.34
2023-04-08T02:26:14.454Z,47.06
2023-04-08T02:28:42.072Z,47.16
2023-04-08T02:31:13.559Z,47.08
2023-04-08T02:33:40.513Z,47.40
2023-04-08T02:36:07.832Z,47.33
2023-04-08T02:38:34.659Z,47.20
2023-04-08T02:41:01.790Z,47.04
2023-04-08T02:43:34.704Z,47.20
2023-04-08T02:46:04.749Z,46.80
2023-04-08T02:48:31.642Z,47.00
2023-04-08T02:50:58.794Z,47.34
2023-04-08T02:53:25.656Z,46.93
2023-04-08T02:55:52.744Z,47.05
2023-04-08T02:58:19.543Z,47.43
2023-04-08T03:00:46.748Z,47.14
2023-04-08T03:03:13.626Z,47.29
2023-04-08T03:05:41.261Z,47.56
2023-04-08T03:08:08.102Z,47.10
2023-04-08T03:10:35.436Z,47.50
2023-04-08T03:13:02.220Z,47.39
2023-04-08T03:15:29.334Z,47.69
2023-04-08T03:17:56.453Z,47.88
2023-04-08T03:20:23.554Z,47.66
2023-04-08T03:22:50.523Z,47.42
2023-04-08T03:25:17.687Z,47.44
2023-04-08T03:27:44.500Z,47.83
2023-04-08T03:30:12.006Z,47.76
2023-04-08T03:32:38.934Z,47.76
2023-04-08T03:35:06.353Z,47.87
2023-04-08T03:37:33.206Z,47.77
2023-04-08T03:40:00.556Z,47.99
2023-04-08T03:42:27.374Z,48.13
2023-04-08T03:44:54.455Z,48.07
2023-04-08T03:47:21.179Z,47.93
2023-04-08T03:49:48.293Z,47.94
2023-04-08T03:52:15.052Z,48.13
2023-04-08T03:54:42.113Z,48.08
2023-04-08T03:57:08.833Z,47.54
2023-04-08T03:59:36.805Z,47.97
2023-04-08T04:02:03.605Z,48.05
2023-04-08T04:04:30.860Z,47.78
2023-04-08T04:06:57.749Z,47.57
2023-04-08T04:09:24.900Z,48.06
2023-04-08T04:11:51.656Z,47.87
2023-04-08T04:14:18.732Z,48.10
2023-04-08T04:16:45.475Z,48.02
2023-04-08T04:19:12.607Z,48.29
2023-04-08T04:21:39.381Z,48.24
2023-04-08T04:24:06.475Z,48.83
2023-04-08T04:26:33.303Z,48.56
2023-04-08T04:29:00.393Z,47.98
2023-04-08T04:31:27.535Z,48.81
2023-04-08T04:33:54.832Z,48.25
2023-04-08T04:36:21.653Z,48.41
2023-04-08T04:38:50.592Z,48.56
2023-04-08T04:41:17.861Z,48.45
2023-04-08T04:43:45.023Z,48.19
2023-04-08T04:46:11.910Z,48.47
2023-04-08T04:48:39.118Z,48.20
2023-04-08T04:51:07.574Z,48.32
2023-04-08T04:53:34.764Z,48.39
2023-04-08T04:56:02.072Z,48.17
2023-04-08T04:58:29.782Z,48.01
2023-04-08T05:00:56.846Z,48.37
2023-04-08T05:03:23.707Z,48.00
2023-04-08T05:05:54.501Z,48.24
2023-04-08T05:08:21.441Z,48.36
2023-04-08T05:10:50.683Z,48.40
2023-04-08T05:13:18.454Z,48.44
2023-04-08T05:15:46.028Z,48.23
2023-04-08T05:18:13.023Z,48.38
2023-04-08T05:20:40.331Z,48.22
2023-04-08T05:23:07.815Z,48.49
2023-04-08T05:25:34.975Z,48.91
2023-04-08T05:28:01.906Z,48.81
2023-04-08T05:30:29.085Z,48.44
2023-04-08T05:32:58.486Z,48.63
2023-04-08T05:35:27.313Z,48.40
2023-04-08T05:37:54.134Z,48.31
2023-04-08T05:40:21.306Z,48.43
2023-04-08T05:42:48.113Z,48.25
2023-04-08T05:45:16.190Z,48.82
2023-04-08T05:47:42.998Z,48.20
2023-04-08T05:50:11.393Z,48.35
2023-04-08T05:52:41.818Z,48.54
2023-04-08T05:55:09.162Z,48.14
2023-04-08T05:57:36.186Z,48.35
2023-04-08T06:00:08.371Z,48.45
2023-04-08T06:02:36.099Z,48.46
2023-04-08T06:05:03.999Z,48.42
2023-04-08T06:07:31.087Z,48.86
2023-04-08T06:09:58.211Z,48.39
2023-04-08T06:12:25.020Z,48.94
2023-04-08T06:14:56.179Z,48.57
2023-04-08T06:17:23.309Z,48.24
2023-04-08T06:19:50.467Z,48.67
2023-04-08T06:22:17.259Z,48.80
2023-04-08T06:24:44.372Z,48.71
2023-04-08T06:27:11.275Z,48.61
2023-04-08T06:29:38.813Z,48.90
2023-04-08T06:32:06.702Z,48.68
2023-04-08T06:34:33.787Z,48.65
2023-04-08T06:37:00.896Z,48.53
2023-04-08T06:39:27.934Z,48.96
2023-04-08T06:41:54.810Z,48.78
2023-04-08T06:44:21.944Z,48.93
2023-04-08T06:46:48.711Z,48.64
2023-04-08T06:49:15.923Z,48.91
2023-04-08T06:51:42.766Z,48.72
2023-04-08T06:54:12.682Z,48.46
2023-04-08T06:56:39.468Z,48.85
2023-04-08T06:59:06.556Z,48.69
2023-04-08T07:01:33.444Z,48.95
2023-04-08T07:04:02.397Z,48.54
2023-04-08T07:06:29.237Z,48.71
2023-04-08T07:08:56.380Z,48.45
2023-04-08T07:11:23.212Z,48.79
2023-04-08T07:13:50.766Z,48.66
2023-04-08T07:16:17.563Z,48.60
2023-04-08T07:18:44.916Z,48.46
2023-04-08T07:21:11.686Z,48.47
2023-04-08T07:23:38.836Z,48.01
2023-04-08T07:26:05.793Z,48.01
2023-04-08T07:28:32.974Z,47.59
2023-04-08T07:31:26.507Z,47.98
2023-04-08T07:33:53.805Z,47.98
2023-04-08T07:36:21.165Z,47.68
2023-04-08T07:38:48.515Z,47.98
2023-04-08T07:41:15.839Z,47.69
2023-04-08T07:43:43.013Z,48.02
2023-04-08T07:46:09.907Z,48.22
2023-04-08T07:48:37.143Z,48.38
2023-04-08T07:51:10.046Z,48.22
2023-04-08T07:53:38.853Z,48.36
2023-04-08T07:56:11.594Z,47.65
2023-04-08T07:58:40.405Z,47.61
2023-04-08T08:01:21.987Z,48.01
2023-04-08T08:03:50.995Z,48.20
2023-04-08T08:06:18.196Z,47.47
2023-04-08T08:08:45.813Z,47.12
2023-04-08T08:11:12.984Z,46.66
2023-04-08T08:13:40.273Z,46.84
2023-04-08T08:16:09.255Z,47.20
2023-04-08T08:18:37.062Z,46.92
2023-04-08T08:21:03.987Z,47.35
2023-04-08T08:23:31.165Z,47.53
2023-04-08T08:26:10.333Z,46.86
2023-04-08T08:28:38.493Z,46.79
2023-04-08T08:31:06.286Z,46.75
2023-04-08T08:33:33.592Z,46.84
2023-04-08T08:36:00.522Z,46.75
2023-04-08T08:38:27.724Z,45.93
2023-04-08T08:40:56.369Z,46.40
2023-04-08T08:43:24.496Z,46.30
2023-04-08T08:45:51.406Z,46.06
2023-04-08T08:48:18.640Z,45.91
2023-04-08T08:50:45.735Z,46.13
2023-04-08T08:53:13.042Z,45.73
2023-04-08T08:56:05.674Z,45.43
2023-04-08T08:58:29.355Z,45.48
2023-04-08T09:00:56.502Z,45.20
2023-04-08T09:03:24.828Z,45.10
2023-04-08T09:05:53.475Z,44.86
2023-04-08T09:08:34.521Z,45.02
2023-04-08T09:11:21.848Z,45.06
2023-04-08T09:13:49.419Z,44.68
2023-04-08T09:16:18.343Z,44.74
2023-04-08T09:18:47.304Z,44.70
2023-04-08T09:21:14.728Z,44.60
2023-04-08T09:23:46.828Z,44.43
2023-04-08T09:26:22.313Z,44.36
2023-04-08T09:29:18.338Z,44.18
2023-04-08T09:31:59.274Z,44.23
2023-04-08T09:34:27.768Z,43.76
2023-04-08T09:36:54.839Z,43.88
2023-04-08T09:39:22.042Z,43.69
2023-04-08T09:41:50.151Z,43.27
2023-04-08T09:44:18.589Z,42.74
2023-04-08T09:46:45.544Z,42.93
2023-04-08T09:49:13.817Z,42.73
2023-04-08T09:51:45.580Z,42.40
2023-04-08T09:54:15.076Z,42.34
2023-04-08T09:56:47.810Z,42.24
2023-04-08T09:59:18.669Z,42.41
2023-04-08T10:01:47.672Z,41.99
2023-04-08T10:04:16.395Z,42.08
2023-04-08T10:06:43.302Z,42.03
2023-04-08T10:09:10.554Z,42.10
2023-04-08T10:11:37.465Z,42.19
2023-04-08T10:14:04.782Z,42.52
2023-04-08T10:16:31.773Z,42.17
2023-04-08T10:18:59.077Z,41.98
2023-04-08T10:21:33.361Z,42.30
2023-04-08T10:24:01.540Z,42.34
2023-04-08T10:26:44.669Z,42.02
2023-04-08T10:29:17.899Z,42.35
2023-04-08T10:31:45.322Z,42.17
2023-04-08T10:34:19.318Z,41.91
2023-04-08T10:36:46.360Z,41.87
2023-04-08T10:39:13.946Z,41.91
2023-04-08T10:41:46.996Z,41.33
2023-04-08T10:44:20.901Z,41.76
2023-04-08T10:46:48.331Z,41.80
2023-04-08T10:49:15.919Z,41.65
2023-04-08T10:51:44.207Z,41.31
2023-04-08T10:54:12.941Z,41.62
2023-04-08T10:56:49.485Z,40.88
2023-04-08T10:59:17.830Z,41.42
2023-04-08T11:01:45.687Z,41.57
2023-04-08T11:04:18.488Z,41.19
2023-04-08T11:06:46.857Z,40.73
2023-04-08T11:09:14.349Z,40.75
2023-04-08T11:11:45.157Z,40.68
2023-04-08T11:14:13.866Z,40.16
2023-04-08T11:16:40.771Z,40.46
2023-04-08T11:19:08.020Z,40.33
2023-04-08T11:21:38.704Z,40.27
2023-04-08T11:24:13.351Z,40.11
2023-04-08T11:26:40.690Z,40.27
2023-04-08T11:29:12.794Z,40.02
2023-04-08T11:31:39.607Z,40.49
2023-04-08T11:34:07.452Z,39.71
2023-04-08T11:36:36.614Z,39.75
2023-04-08T11:39:08.362Z,39.71
2023-04-08T11:41:39.544Z,39.56
2023-04-08T11:44:09.597Z,39.76
2023-04-08T11:46:36.671Z,39.57
2023-04-08T11:49:04.831Z,39.50
2023-04-08T11:51:31.938Z,39.18
2023-04-08T11:53:59.149Z,39.67
2023-04-08T11:56:26.478Z,39.28
2023-04-08T11:58:53.713Z,39.50
2023-04-08T12:01:21.657Z,39.51
2023-04-08T12:03:59.432Z,39.24
2023-04-08T12:06:27.567Z,39.79
2023-04-08T12:08:55.844Z,39.41
2023-04-08T12:11:24.132Z,39.50
2023-04-08T12:13:52.931Z,39.79
2023-04-08T12:16:20.584Z,39.91
2023-04-08T12:18:47.865Z,39.67
2023-04-08T12:21:14.743Z,39.90
2023-04-08T12:23:41.912Z,39.63
2023-04-08T12:26:08.888Z,40.00
2023-04-08T12:28:36.331Z,39.12
2023-04-08T12:31:03.511Z,39.13
2023-04-08T12:33:30.884Z,39.29
2023-04-08T12:36:00.851Z,39.17
2023-04-08T12:38:28.052Z,39.02
2023-04-08T12:40:55.353Z,39.11
2023-04-08T12:43:23.693Z,39.15
2023-04-08T12:45:51.358Z,39.46
2023-04-08T12:48:18.546Z,39.75
2023-04-08T12:50:45.504Z,39.55
2023-04-08T12:53:12.672Z,39.45
2023-04-08T12:55:39.667Z,39.39
2023-04-08T12:58:06.864Z,39.39
2023-04-08T13:00:33.750Z,39.79
2023-04-08T13:03:01.268Z,40.10
2023-04-08T13:05:41.881Z,39.59
2023-04-08T13:08:11.958Z,39.79
2023-04-08T13:10:38.873Z,39.63
2023-04-08T13:13:06.681Z,39.89
2023-04-08T13:15:33.594Z,39.49
2023-04-08T13:18:01.053Z,39.39
2023-04-08T13:20:28.266Z,39.43
2023-04-08T13:22:55.673Z,39.40
2023-04-08T13:25:22.589Z,39.50
2023-04-08T13:27:49.710Z,39.60
2023-04-08T13:30:16.626Z,39.59
2023-04-08T13:32:43.861Z,39.12
2023-04-08T13:35:10.740Z,39.57
2023-04-08T13:37:37.837Z,39.66
2023-04-08T13:40:05.306Z,39.34
2023-04-08T13:42:32.897Z,39.54
2023-04-08T13:44:59.737Z,39.34
2023-04-08T13:47:27.202Z,39.32
2023-04-08T13:49:54.116Z,39.12
2023-04-08T13:52:21.344Z,39.39
2023-04-08T13:54:48.351Z,39.41
2023-04-08T13:57:15.486Z,39.47
2023-04-08T13:59:44.398Z,39.58
2023-04-08T14:02:12.962Z,39.73
2023-04-08T14:04:41.014Z,39.69
2023-04-08T14:07:08.277Z,40.17
2023-04-08T14:09:35.848Z,40.09
2023-04-08T14:12:02.937Z,39.97
2023-04-08T14:14:29.872Z,40.18
2023-04-08T14:16:57.204Z,40.56
2023-04-08T14:19:24.130Z,39.97
2023-04-08T14:21:51.388Z,40.43
2023-04-08T14:24:18.189Z,40.20
2023-04-08T14:26:45.482Z,40.21
2023-04-08T14:29:12.382Z,40.63
2023-04-08T14:31:39.560Z,40.42
2023-04-08T14:34:06.422Z,40.40
2023-04-08T14:36:33.838Z,40.46
2023-04-08T14:39:00.839Z,40.81
2023-04-08T14:41:28.125Z,40.37
2023-04-08T14:43:55.050Z,40.49
2023-04-08T14:46:22.364Z,40.51
2023-04-08T14:48:50.646Z,40.54
2023-04-08T14:51:18.133Z,40.32
2023-04-08T14:53:45.022Z,40.42
2023-04-08T14:56:13.368Z,40.72
2023-04-08T14:58:40.259Z,40.78
2023-04-08T15:01:07.405Z,40.84
2023-04-08T15:03:34.339Z,40.77
2023-04-08T15:06:01.968Z,40.74
2023-04-08T15:08:28.912Z,40.64
2023-04-08T15:10:57.040Z,40.68
2023-04-08T15:13:23.855Z,40.80
2023-04-08T15:15:51.710Z,40.95
2023-04-08T15:18:18.600Z,40.93
2023-04-08T15:20:46.131Z,40.87
2023-04-08T15:23:12.966Z,40.96
2023-04-08T15:25:40.170Z,41.04
2023-04-08T15:28:07.062Z,40.59
2023-04-08T15:30:35.685Z,41.17
2023-04-08T15:33:03.750Z,41.17
2023-04-08T15:35:31.448Z,41.05
2023-04-08T15:37:58.427Z,41.20
2023-04-08T15:40:25.907Z,41.18
2023-04-08T15:42:53.124Z,41.40
2023-04-08T15:45:20.628Z,41.49
2023-04-08T15:47:47.458Z,41.71
2023-04-08T15:50:15.307Z,42.31
2023-04-08T15:52:42.462Z,42.17
2023-04-08T15:55:10.031Z,41.55
2023-04-08T15:57:37.224Z,41.96
2023-04-08T16:00:11.182Z,42.16
2023-04-08T16:02:38.539Z,41.62
2023-04-08T16:05:06.304Z,42.11
2023-04-08T16:07:33.328Z,41.63
2023-04-08T16:10:00.617Z,41.97
2023-04-08T16:12:27.578Z,41.95
2023-04-08T16:14:54.908Z,42.23
2023-04-08T16:17:22.043Z,42.39
2023-04-08T16:19:50.766Z,42.22
2023-04-08T16:22:18.014Z,42.08
2023-04-08T16:24:45.351Z,42.52
2023-04-08T16:27:12.175Z,42.32
2023-04-08T16:29:39.617Z,41.82
2023-04-08T16:32:06.792Z,42.38
2023-04-08T16:34:34.670Z,42.17
2023-04-08T16:37:01.449Z,42.12
2023-04-08T16:39:28.714Z,41.97
2023-04-08T16:41:55.614Z,42.15
2023-04-08T16:44:22.848Z,42.26
2023-04-08T16:46:49.740Z,42.22
2023-04-08T16:49:18.222Z,41.85
2023-04-08T16:51:45.280Z,42.11
2023-04-08T16:54:12.672Z,42.14
2023-04-08T16:56:44.352Z,41.74
2023-04-08T16:59:12.598Z,42.43
2023-04-08T17:01:39.457Z,42.26
2023-04-08T17:04:06.813Z,42.10
2023-04-08T17:06:35.789Z,42.35
2023-04-08T17:09:03.920Z,42.27
2023-04-08T17:11:31.163Z,42.24
2023-04-08T17:13:58.434Z,42.65
2023-04-08T17:16:25.519Z,42.27
2023-04-08T17:18:52.831Z,42.71
2023-04-08T17:21:21.242Z,42.51
2023-04-08T17:23:48.500Z,42.58
2023-04-08T17:26:15.557Z,42.69
2023-04-08T17:28:45.401Z,42.78
2023-04-08T17:31:12.283Z,42.72
2023-04-08T17:33:39.413Z,43.05
2023-04-08T17:36:06.644Z,43.10
2023-04-08T17:38:33.880Z,42.92
2023-04-08T17:41:00.660Z,43.04
2023-04-08T17:43:27.831Z,42.96
2023-04-08T17:45:59.455Z,42.91
2023-04-08T17:48:27.007Z,43.03
2023-04-08T17:51:04.497Z,43.12
2023-04-08T17:53:32.291Z,43.46
2023-04-08T17:55:59.444Z,43.08
2023-04-08T17:58:27.322Z,43.40
2023-04-08T18:00:54.148Z,43.13
2023-04-08T18:03:21.654Z,43.41
2023-04-08T18:05:48.742Z,43.14
2023-04-08T18:08:16.284Z,43.23
2023-04-08T18:10:43.575Z,43.38
2023-04-08T18:13:12.059Z,43.41
2023-04-08T18:15:39.261Z,43.44
2023-04-08T18:18:06.395Z,43.35
2023-04-08T18:20:36.926Z,43.46
2023-04-08T18:23:04.526Z,43.46
2023-04-08T18:25:32.142Z,43.63
2023-04-08T18:27:59.592Z,43.29
2023-04-08T18:30:26.536Z,43.62
2023-04-08T18:32:53.649Z,43.43
2023-04-08T18:35:21.067Z,43.62
2023-04-08T18:37:48.411Z,43.48
2023-04-08T18:40:15.556Z,43.48
2023-04-08T18:42:42.633Z,43.60
2023-04-08T18:45:09.724Z,43.89
2023-04-08T18:47:37.672Z,43.37
2023-04-08T18:50:04.816Z,43.53
2023-04-08T18:52:32.375Z,43.77
2023-04-08T18:55:00.097Z,43.89
2023-04-08T18:57:27.217Z,43.78
2023-04-08T18:59:53.960Z,43.63
2023-04-08T19:02:21.747Z,43.73
2023-04-08T19:04:48.629Z,43.55
2023-04-08T19:07:17.150Z,43.78
2023-04-08T19:09:44.047Z,43.65
2023-04-08T19:12:11.256Z,43.67
2023-04-08T19:14:38.129Z,43.88
2023-04-08T19:17:05.301Z,43.71
2023-04-08T19:19:32.654Z,43.91
2023-04-08T19:22:02.762Z,43.85
2023-04-08T19:24:29.587Z,43.62
2023-04-08T19:26:56.629Z,43.78
2023-04-08T19:29:24.482Z,43.61
2023-04-08T19:31:53.048Z,43.77
2023-04-08T19:34:21.172Z,43.84
2023-04-08T19:36:49.515Z,43.70
2023-04-08T19:39:17.459Z,43.91
2023-04-08T19:41:45.370Z,43.87
2023-04-08T19:44:12.170Z,43.71
2023-04-08T19:46:39.264Z,43.86
2023-04-08T19:49:06.329Z,44.21
2023-04-08T19:51:33.456Z,43.79
2023-04-08T19:54:00.302Z,44.05
2023-04-08T19:56:27.986Z,43.77
2023-04-08T19:58:55.129Z,43.82
2023-04-08T20:01:23.854Z,43.66
2023-04-08T20:03:52.334Z,43.88
2023-04-08T20:06:19.975Z,43.91
2023-04-08T20:08:46.806Z,44.15
2023-04-08T20:11:13.940Z,44.00
2023-04-08T20:13:40.965Z,44.15
2023-04-08T20:16:08.466Z,44.29
2023-04-08T20:18:35.364Z,44.03
2023-04-08T20:21:02.589Z,43.88
2023-04-08T20:23:29.453Z,44.17
2023-04-08T20:25:56.838Z,44.26
2023-04-08T20:28:23.829Z,44.20
2023-04-08T20:30:52.417Z,44.30
2023-04-08T20:33:19.306Z,44.16
2023-04-08T20:35:47.667Z,43.98
2023-04-08T20:38:14.687Z,44.21
2023-04-08T20:40:44.150Z,44.66
2023-04-08T20:43:11.466Z,44.39
2023-04-08T20:45:38.660Z,44.54
2023-04-08T20:48:05.983Z,43.96
2023-04-08T20:50:33.184Z,44.44
2023-04-08T20:53:00.117Z,44.62
2023-04-08T20:55:27.308Z,44.28
2023-04-08T20:57:54.155Z,44.21
2023-04-08T21:00:21.394Z,44.09
2023-04-08T21:02:48.499Z,44.44
2023-04-08T21:05:15.876Z,44.53
2023-04-08T21:07:44.774Z,44.31
2023-04-08T21:10:14.860Z,44.35
2023-04-08T21:12:41.709Z,44.14
2023-04-08T21:15:09.415Z,44.19
2023-04-08T21:17:36.314Z,44.46
2023-04-08T21:20:04.669Z,44.41
2023-04-08T21:22:32.371Z,44.36
2023-04-08T21:24:59.489Z,44.21
2023-04-08T21:27:26.296Z,44.37
2023-04-08T21:29:53.509Z,44.44
2023-04-08T21:32:20.618Z,44.58
2023-04-08T21:34:47.868Z,44.50
2023-04-08T21:37:14.638Z,44.45
2023-04-08T21:39:41.715Z,44.53
2023-04-08T21:42:08.548Z,44.56
2023-04-08T21:44:35.644Z,44.51
2023-04-08T21:47:02.574Z,44.42
2023-04-08T21:49:32.739Z,44.54
2023-04-08T21:51:59.589Z,44.44
2023-04-08T21:54:26.733Z,44.54
2023-04-08T21:56:53.567Z,44.25
2023-04-08T21:59:20.868Z,44.61
2023-04-08T22:01:48.038Z,44.46
2023-04-08T22:04:15.779Z,44.35
2023-04-08T22:06:42.896Z,44.64
2023-04-08T22:09:10.104Z,44.50
2023-04-08T22:11:36.945Z,44.46
2023-04-08T22:14:04.068Z,44.76
2023-04-08T22:16:32.158Z,44.40
2023-04-08T22:18:59.325Z,44.71
2023-04-08T22:21:26.322Z,44.68
2023-04-08T22:24:03.252Z,44.61
2023-04-08T22:26:30.079Z,44.74
2023-04-08T22:28:57.336Z,44.48
2023-04-08T22:31:24.203Z,44.72
2023-04-08T22:33:51.426Z,44.90
2023-04-08T22:36:18.219Z,44.86
2023-04-08T22:38:46.373Z,44.76
2023-04-08T22:41:20.016Z,44.76
2023-04-08T22:43:47.330Z,44.78
2023-04-08T22:46:14.557Z,44.84
2023-04-08T22:48:41.828Z,44.80
2023-04-08T22:51:09.241Z,44.67
2023-04-08T22:53:37.102Z,44.69
2023-04-08T22:56:04.486Z,44.50
2023-04-08T22:58:31.658Z,44.70
2023-04-08T23:00:58.504Z,44.97
2023-04-08T23:03:25.760Z,44.97
2023-04-08T23:05:52.565Z,45.10
2023-04-08T23:08:19.666Z,45.02
2023-04-08T23:10:46.555Z,44.63
2023-04-08T23:13:14.112Z,44.95
2023-04-08T23:15:40.941Z,45.08
2023-04-08T23:18:08.062Z,44.89
2023-04-08T23:20:35.584Z,45.05
2023-04-08T23:23:03.550Z,44.85
2023-04-08T23:25:30.531Z,44.58
2023-04-08T23:27:57.718Z,44.95
2023-04-08T23:30:24.504Z,44.90
2023-04-08T23:32:51.628Z,45.13
2023-04-08T23:35:18.547Z,44.87
2023-04-08T23:37:45.826Z,44.92
2023-04-08T23:40:12.714Z,45.07
2023-04-08T23:42:39.852Z,44.85
2023-04-08T23:45:07.068Z,44.90
2023-04-08T23:47:34.212Z,44.82
2023-04-08T23:50:01.280Z,44.96
2023-04-08T23:52:28.425Z,45.16
2023-04-08T23:54:55.281Z,45.17
2023-04-08T23:57:22.338Z,44.85
2023-04-08T23:59:49.177Z,44.83
